createdAt,value
2023-02-28T00:01:57.445Z,11.02
2023-02-28T00:07:02.218Z,10.10
2023-02-28T00:12:11.266Z,9.93
2023-02-28T00:17:19.030Z,21.02
2023-02-28T00:22:24.789Z,11.65
2023-02-28T00:27:29.459Z,10.07
2023-02-28T00:32:37.143Z,11.50
2023-02-28T00:37:42.041Z,12.15
2023-02-28T00:42:46.710Z,12.05
2023-02-28T00:47:54.321Z,10.95
2023-02-28T00:52:59.482Z,40.75
2023-02-28T00:58:04.336Z,14.50
2023-02-28T01:03:11.608Z,13.45
2023-02-28T01:08:16.721Z,14.00
2023-02-28T01:13:21.857Z,13.20
2023-02-28T01:18:29.730Z,13.43
2023-02-28T01:23:34.625Z,12.63
2023-02-28T01:28:39.435Z,14.35
2023-02-28T01:33:47.248Z,13.52
2023-02-28T01:38:52.219Z,14.40
2023-02-28T01:44:04.699Z,13.98
2023-02-28T01:49:13.927Z,13.93
2023-02-28T01:54:20.534Z,13.13
2023-02-28T01:59:27.289Z,14.82
2023-02-28T02:04:37.397Z,13.30
2023-02-28T02:09:42.150Z,14.85
2023-02-28T02:14:53.519Z,21.10
2023-02-28T02:20:16.745Z,21.17
2023-02-28T02:25:27.706Z,19.30
2023-02-28T02:30:49.426Z,16.05
2023-02-28T02:35:58.366Z,21.95
2023-02-28T02:41:08.537Z,19.15
2023-02-28T02:46:15.091Z,16.02
2023-02-28T02:51:25.146Z,20.50
2023-02-28T02:56:31.758Z,16.25
2023-02-28T03:01:37.396Z,20.58
2023-02-28T03:06:44.819Z,17.58
2023-02-28T03:11:49.552Z,17.27
2023-02-28T03:17:01.109Z,18.15
2023-02-28T03:22:16.526Z,17.65
2023-02-28T03:27:25.256Z,15.30
2023-02-28T03:32:32.555Z,15.07
2023-02-28T03:37:42.326Z,12.90
2023-02-28T03:42:48.502Z,14.20
2023-02-28T03:47:55.514Z,15.45
2023-02-28T03:53:06.102Z,12.95
2023-02-28T03:58:15.562Z,10.13
2023-02-28T04:03:20.496Z,11.70
2023-02-28T04:08:28.109Z,11.40
2023-02-28T04:13:32.953Z,11.38
2023-02-28T04:18:37.854Z,10.90
2023-02-28T04:23:45.533Z,11.50
2023-02-28T04:28:50.294Z,10.63
2023-02-28T04:33:55.077Z,15.90
2023-02-28T04:39:02.738Z,11.80
2023-02-28T04:44:07.760Z,11.93
2023-02-28T04:49:13.078Z,12.10
2023-02-28T04:54:20.464Z,11.30
2023-02-28T04:59:25.419Z,11.95
2023-02-28T05:04:30.335Z,11.15
2023-02-28T05:09:38.081Z,11.80
2023-02-28T05:14:42.943Z,11.52
2023-02-28T05:19:47.763Z,10.25
2023-02-28T05:24:55.094Z,10.70
2023-02-28T05:30:00.254Z,9.65
2023-02-28T05:35:05.032Z,9.90
2023-02-28T05:40:14.263Z,9.65
2023-02-28T05:45:19.193Z,11.30
2023-02-28T05:50:24.031Z,10.70
2023-02-28T05:55:31.732Z,9.65
2023-02-28T06:00:36.563Z,9.95
2023-02-28T06:05:42.041Z,10.85
2023-02-28T06:10:49.523Z,10.40
2023-02-28T06:15:54.482Z,9.73
2023-02-28T06:20:59.832Z,9.23
2023-02-28T06:26:07.769Z,9.75
2023-02-28T06:31:13.446Z,9.35
2023-02-28T06:36:19.508Z,9.35
2023-02-28T06:41:28.812Z,12.23
2023-02-28T06:46:34.046Z,9.60
2023-02-28T06:51:39.310Z,10.60
2023-02-28T06:56:46.654Z,11.40
2023-02-28T07:01:51.729Z,13.80
2023-02-28T07:06:58.002Z,12.73
2023-02-28T07:12:05.456Z,11.80
2023-02-28T07:17:12.149Z,11.02
2023-02-28T07:22:16.947Z,11.35
2023-02-28T07:27:27.597Z,12.73
2023-02-28T07:32:32.475Z,12.20
2023-02-28T07:37:37.803Z,12.77
2023-02-28T07:42:45.673Z,11.90
2023-02-28T07:47:50.782Z,11.38
2023-02-28T07:52:55.541Z,12.02
2023-02-28T07:58:03.544Z,11.48
2023-02-28T08:03:08.294Z,11.93
2023-02-28T08:08:13.053Z,13.60
2023-02-28T08:13:20.498Z,12.50
2023-02-28T08:18:25.844Z,12.95
2023-02-28T08:23:30.619Z,13.93
2023-02-28T08:28:38.121Z,15.13
2023-02-28T08:33:43.325Z,12.55
2023-02-28T08:38:48.265Z,14.48
2023-02-28T08:43:55.904Z,14.88
2023-02-28T08:49:03.030Z,15.00
2023-02-28T08:54:11.335Z,13.80
2023-02-28T08:59:19.134Z,13.93
2023-02-28T09:04:25.364Z,14.68
2023-02-28T09:09:30.416Z,13.80
2023-02-28T09:14:42.196Z,13.52
2023-02-28T09:19:47.534Z,18.08
2023-02-28T09:24:52.461Z,21.08
2023-02-28T09:29:59.885Z,13.02
2023-02-28T09:35:05.770Z,14.60
2023-02-28T09:40:14.390Z,14.15
2023-02-28T09:45:26.950Z,21.00
2023-02-28T09:50:34.680Z,27.38
2023-02-28T09:55:46.803Z,19.77
2023-02-28T10:00:59.316Z,12.82
2023-02-28T10:06:07.417Z,12.00
2023-02-28T10:11:17.957Z,29.40
2023-02-28T10:16:28.716Z,17.98
2023-02-28T10:21:35.908Z,15.30
2023-02-28T10:26:40.682Z,13.57
2023-02-28T10:31:48.218Z,12.70
2023-02-28T10:36:54.178Z,12.23
2023-02-28T10:41:59.367Z,11.05
2023-02-28T10:47:08.111Z,11.85
2023-02-28T10:52:13.414Z,10.10
2023-02-28T10:57:20.389Z,10.70
2023-02-28T11:02:38.951Z,13.15
2023-02-28T11:07:52.892Z,11.80
2023-02-28T11:13:00.906Z,10.95
2023-02-28T11:18:22.457Z,10.10
2023-02-28T11:23:28.912Z,10.88
2023-02-28T11:28:35.120Z,9.68
2023-02-28T11:33:49.931Z,9.95
2023-02-28T11:38:55.270Z,8.98
2023-02-28T11:44:05.086Z,8.90
2023-02-28T11:49:19.939Z,10.13
2023-02-28T11:54:48.915Z,9.38
2023-02-28T11:59:59.079Z,14.65
2023-02-28T12:05:14.538Z,10.27
2023-02-28T12:10:24.083Z,19.92
2023-02-28T12:15:32.875Z,10.30
2023-02-28T12:20:45.577Z,35.75
2023-02-28T12:25:56.097Z,21.73
2023-02-28T12:31:02.407Z,12.30
2023-02-28T12:36:16.452Z,47.47
2023-02-28T12:41:22.733Z,29.67
2023-02-28T12:46:28.426Z,27.20
2023-02-28T12:51:36.162Z,27.48
2023-02-28T12:56:48.061Z,23.55
2023-02-28T13:02:01.274Z,29.13
2023-02-28T13:07:19.604Z,12.93
2023-02-28T13:12:24.677Z,9.30
2023-02-28T13:17:29.940Z,10.95
2023-02-28T13:22:45.292Z,12.93
2023-02-28T13:27:55.722Z,13.93
2023-02-28T13:38:20.269Z,10.88
2023-02-28T13:43:35.747Z,13.25
2023-02-28T13:48:41.420Z,17.52
2023-02-28T13:54:00.928Z,12.27
2023-02-28T13:59:19.390Z,21.48
2023-02-28T14:04:39.054Z,36.92
2023-02-28T14:09:45.482Z,21.83
2023-02-28T14:15:02.181Z,32.42
2023-02-28T14:20:07.494Z,18.45
2023-02-28T14:25:14.993Z,17.95
2023-02-28T14:30:30.803Z,15.85
2023-02-28T14:35:50.104Z,13.57
2023-02-28T14:40:56.393Z,11.95
2023-02-28T14:46:04.560Z,14.63
2023-02-28T14:51:09.467Z,13.23
2023-02-28T14:56:22.196Z,12.57
2023-02-28T15:01:29.636Z,11.55
2023-02-28T15:06:34.805Z,17.23
2023-02-28T15:11:40.107Z,16.05
2023-02-28T15:16:48.706Z,13.50
2023-02-28T15:21:55.946Z,13.68
2023-02-28T15:27:01.326Z,23.95
2023-02-28T15:32:11.512Z,15.43
2023-02-28T15:37:37.196Z,13.02
2023-02-28T15:42:41.966Z,13.00
2023-02-28T15:47:50.246Z,12.15
2023-02-28T15:52:55.222Z,11.75
2023-02-28T15:58:01.843Z,12.23
2023-02-28T16:03:26.551Z,16.05
2023-02-28T16:08:31.231Z,16.65
2023-02-28T16:13:36.056Z,17.55
2023-02-28T16:18:43.522Z,14.88
2023-02-28T16:23:48.180Z,13.02
2023-02-28T16:28:53.578Z,14.25
2023-02-28T16:34:00.935Z,15.00
2023-02-28T16:39:06.294Z,14.35
2023-02-28T16:44:14.773Z,14.45
2023-02-28T16:49:22.184Z,16.58
2023-02-28T16:54:26.869Z,16.30
2023-02-28T16:59:32.029Z,16.83
2023-02-28T17:04:39.564Z,15.02
2023-02-28T17:09:45.621Z,17.50
2023-02-28T17:14:51.382Z,19.60
2023-02-28T17:19:58.803Z,24.20
2023-02-28T17:25:03.532Z,28.13
2023-02-28T17:30:14.100Z,24.70
2023-02-28T17:35:21.590Z,22.33
2023-02-28T17:40:27.130Z,25.83
2023-02-28T17:45:31.776Z,31.25
2023-02-28T17:50:39.268Z,59.60
2023-02-28T17:55:44.268Z,45.05
2023-02-28T18:00:54.968Z,41.40
2023-02-28T18:06:02.712Z,36.78
2023-02-28T18:11:07.735Z,37.38
2023-02-28T18:16:12.863Z,29.45
2023-02-28T18:21:20.760Z,28.20
2023-02-28T18:26:25.634Z,31.20
2023-02-28T18:31:32.737Z,31.52
2023-02-28T18:36:40.402Z,34.72
2023-02-28T18:41:45.309Z,31.25
2023-02-28T18:46:50.486Z,26.85
2023-02-28T18:51:58.984Z,26.30
2023-02-28T18:57:03.803Z,25.17
2023-02-28T19:02:09.344Z,31.58
2023-02-28T19:07:16.987Z,27.60
2023-02-28T19:12:23.906Z,37.90
2023-02-28T19:17:28.852Z,31.42
2023-02-28T19:22:37.369Z,25.40
2023-02-28T19:27:42.335Z,22.10
2023-02-28T19:32:47.083Z,22.30
2023-02-28T19:37:55.281Z,24.73
2023-02-28T19:43:02.757Z,27.60
2023-02-28T19:48:10.283Z,22.98
2023-02-28T19:53:17.760Z,21.63
2023-02-28T19:58:22.609Z,25.42
2023-02-28T20:03:27.367Z,24.75
2023-02-28T20:08:34.848Z,23.17
2023-02-28T20:13:39.980Z,24.50
2023-02-28T20:18:46.126Z,22.35
2023-02-28T20:23:53.759Z,26.17
2023-02-28T20:28:58.577Z,37.65
2023-02-28T20:34:03.489Z,24.73
2023-02-28T20:39:10.933Z,28.02
2023-02-28T20:49:23.311Z,21.20
2023-02-28T20:54:31.366Z,21.17
2023-02-28T20:59:36.243Z,23.38
2023-02-28T21:04:41.106Z,21.00
2023-02-28T21:09:48.541Z,21.42
2023-02-28T21:14:53.715Z,20.50
2023-02-28T21:19:58.476Z,19.80
2023-02-28T21:25:05.829Z,20.50
2023-02-28T21:30:11.245Z,20.95
2023-02-28T21:35:16.024Z,20.35
2023-02-28T21:40:23.608Z,19.35
2023-02-28T21:45:29.493Z,20.85
2023-02-28T21:50:34.247Z,19.42
2023-02-28T21:55:41.622Z,21.35
2023-02-28T22:00:46.670Z,22.95
2023-02-28T22:05:51.369Z,26.42
2023-02-28T22:10:58.716Z,21.83
2023-02-28T22:16:05.366Z,21.58
2023-02-28T22:21:10.923Z,20.20
2023-02-28T22:26:19.365Z,23.80
2023-02-28T22:31:24.977Z,19.92
2023-02-28T22:36:30.508Z,19.60
2023-02-28T22:41:38.046Z,18.67
2023-02-28T22:46:42.841Z,19.10
2023-02-28T22:51:47.743Z,22.40
2023-02-28T22:56:55.033Z,25.55
2023-02-28T23:01:59.725Z,25.50
2023-02-28T23:07:04.927Z,24.33
2023-02-28T23:12:12.354Z,20.58
2023-02-28T23:17:17.904Z,20.70
2023-02-28T23:22:22.595Z,19.55
2023-02-28T23:27:29.979Z,20.50
2023-02-28T23:32:34.747Z,21.75
2023-02-28T23:37:40.582Z,20.38
2023-02-28T23:42:47.839Z,20.52
2023-02-28T23:47:52.721Z,20.63
2023-02-28T23:52:57.366Z,20.27
2023-02-28T23:58:04.709Z,20.52
